sensor_id;sensor_type;location;lat;lon;timestamp;pressure;altitude;pressure_sealevel;temperature;humidity
56671;BME280;42545;50.054;8.306;2023-04-01T00:00:24;98250.03;;;9.45;86.80
56671;BME280;42545;50.054;8.306;2023-04-01T00:02:51;98240.41;;;9.44;86.90
56671;BME280;42545;50.054;8.306;2023-04-01T00:05:19;98238.66;;;9.43;87.13
56671;BME280;42545;50.054;8.306;2023-04-01T00:07:46;98238.66;;;9.41;87.34
56671;BME280;42545;50.054;8.306;2023-04-01T00:10:13;98239.56;;;9.42;87.38
56671;BME280;42545;50.054;8.306;2023-04-01T00:12:40;98239.56;;;9.40;87.21
56671;BME280;42545;50.054;8.306;2023-04-01T00:15:10;98240.44;;;9.41;87.12
56671;BME280;42545;50.054;8.306;2023-04-01T00:17:37;98243.06;;;9.39;87.11
56671;BME280;42545;50.054;8.306;2023-04-01T00:20:05;98234.31;;;9.39;87.05
56671;BME280;42545;50.054;8.306;2023-04-01T00:22:34;98252.75;;;9.39;86.80
56671;BME280;42545;50.054;8.306;2023-04-01T00:25:01;98237.81;;;9.39;86.85
56671;BME280;42545;50.054;8.306;2023-04-01T00:27:28;98231.69;;;9.39;87.35
56671;BME280;42545;50.054;8.306;2023-04-01T00:29:55;98234.31;;;9.37;87.11
56671;BME280;42545;50.054;8.306;2023-04-01T00:32:21;98218.53;;;9.37;87.26
56671;BME280;42545;50.054;8.306;2023-04-01T00:34:50;98223.78;;;9.37;86.99
56671;BME280;42545;50.054;8.306;2023-04-01T00:37:17;98220.31;;;9.34;87.05
56671;BME280;42545;50.054;8.306;2023-04-01T00:39:45;98220.31;;;9.34;86.75
56671;BME280;42545;50.054;8.306;2023-04-01T00:42:13;98223.81;;;9.34;87.15
56671;BME280;42545;50.054;8.306;2023-04-01T00:44:40;98225.56;;;9.34;87.16
56671;BME280;42545;50.054;8.306;2023-04-01T00:47:07;98219.47;;;9.32;87.05
56671;BME280;42545;50.054;8.306;2023-04-01T00:49:37;98230.84;;;9.31;87.23
56671;BME280;42545;50.054;8.306;2023-04-01T00:52:07;98230.84;;;9.31;87.30
56671;BME280;42545;50.054;8.306;2023-04-01T00:54:35;98229.13;;;9.27;87.33
56671;BME280;42545;50.054;8.306;2023-04-01T00:57:05;98217.75;;;9.28;87.43
56671;BME280;42545;50.054;8.306;2023-04-01T00:59:37;98223.88;;;9.23;87.41
56671;BME280;42545;50.054;8.306;2023-04-01T01:02:07;98215.13;;;9.23;87.11
56671;BME280;42545;50.054;8.306;2023-04-01T01:04:35;98222.16;;;9.22;87.39
56671;BME280;42545;50.054;8.306;2023-04-01T01:07:10;98217.78;;;9.21;86.89
56671;BME280;42545;50.054;8.306;2023-04-01T01:09:45;98220.41;;;9.21;87.21
56671;BME280;42545;50.054;8.306;2023-04-01T01:12:20;98216.91;;;9.21;87.01
56671;BME280;42545;50.054;8.306;2023-04-01T01:14:55;98222.19;;;9.18;87.51
56671;BME280;42545;50.054;8.306;2023-04-01T01:17:32;98215.19;;;9.17;87.01
56671;BME280;42545;50.054;8.306;2023-04-01T01:20:19;98218.69;;;9.16;87.35
56671;BME280;42545;50.054;8.306;2023-04-01T01:23:12;98220.47;;;9.17;87.39
56671;BME280;42545;50.054;8.306;2023-04-01T01:25:52;98216.06;;;9.14;87.20
56671;BME280;42545;50.054;8.306;2023-04-01T01:28:35;98218.75;;;9.13;87.35
56671;BME280;42545;50.054;8.306;2023-04-01T01:31:12;98218.75;;;9.13;87.33
56671;BME280;42545;50.054;8.306;2023-04-01T01:33:53;98217.00;;;9.09;87.28
56671;BME280;42545;50.054;8.306;2023-04-01T01:36:28;98219.59;;;9.12;87.40
56671;BME280;42545;50.054;8.306;2023-04-01T01:39:00;98223.09;;;9.11;87.83
56671;BME280;42545;50.054;8.306;2023-04-01T01:41:32;98210.00;;;9.09;87.88
56671;BME280;42545;50.054;8.306;2023-04-01T01:44:03;98226.66;;;9.08;87.71
56671;BME280;42545;50.054;8.306;2023-04-01T01:46:32;98223.16;;;9.08;87.74
56671;BME280;42545;50.054;8.306;2023-04-01T01:49:00;98201.28;;;8.98;87.98
56671;BME280;42545;50.054;8.306;2023-04-01T01:51:31;98222.25;;;9.09;87.79
56671;BME280;42545;50.054;8.306;2023-04-01T01:53:58;98216.13;;;9.08;87.56
56671;BME280;42545;50.054;8.306;2023-04-01T01:56:28;98202.97;;;9.05;87.66
56671;BME280;42545;50.054;8.306;2023-04-01T01:58:58;98210.00;;;9.09;87.37
56671;BME280;42545;50.054;8.306;2023-04-01T02:01:29;98204.75;;;9.03;87.35
56671;BME280;42545;50.054;8.306;2023-04-01T02:03:58;98211.72;;;9.09;87.53
56671;BME280;42545;50.054;8.306;2023-04-01T02:06:27;98197.72;;;9.05;87.64
56671;BME280;42545;50.054;8.306;2023-04-01T02:08:59;98201.25;;;9.06;87.60
56671;BME280;42545;50.054;8.306;2023-04-01T02:11:30;98198.63;;;8.99;87.70
56671;BME280;42545;50.054;8.306;2023-04-01T02:14:03;98196.88;;;9.03;87.51
56671;BME280;42545;50.054;8.306;2023-04-01T02:16:34;98210.94;;;9.00;87.29
56671;BME280;42545;50.054;8.306;2023-04-01T02:19:06;98209.16;;;9.02;87.50
56671;BME280;42545;50.054;8.306;2023-04-01T02:21:34;98211.78;;;9.01;87.58
56671;BME280;42545;50.054;8.306;2023-04-01T02:24:06;98196.91;;;9.00;87.59
56671;BME280;42545;50.054;8.306;2023-04-01T02:26:34;98211.78;;;8.99;87.77
56671;BME280;42545;50.054;8.306;2023-04-01T02:29:02;98211.81;;;8.98;88.09
56671;BME280;42545;50.054;8.306;2023-04-01T02:31:31;98205.66;;;8.99;87.96
56671;BME280;42545;50.054;8.306;2023-04-01T02:33:58;98191.69;;;8.91;88.03
56671;BME280;42545;50.054;8.306;2023-04-01T02:36:25;98203.97;;;8.92;88.51
56671;BME280;42545;50.054;8.306;2023-04-01T02:38:53;98191.72;;;8.89;88.28
56671;BME280;42545;50.054;8.306;2023-04-01T02:41:25;98210.09;;;8.92;88.58
56671;BME280;42545;50.054;8.306;2023-04-01T02:43:52;98203.09;;;8.91;88.81
56671;BME280;42545;50.054;8.306;2023-04-01T02:46:20;98193.44;;;8.89;88.53
56671;BME280;42545;50.054;8.306;2023-04-01T02:48:47;98206.59;;;8.90;89.02
56671;BME280;42545;50.054;8.306;2023-04-01T02:51:16;98195.22;;;8.88;89.11
56671;BME280;42545;50.054;8.306;2023-04-01T02:53:42;98196.97;;;8.88;89.34
56671;BME280;42545;50.054;8.306;2023-04-01T02:56:09;98197.00;;;8.86;89.68
56671;BME280;42545;50.054;8.306;2023-04-01T02:58:37;98192.59;;;8.87;89.28
56671;BME280;42545;50.054;8.306;2023-04-01T03:01:04;98201.38;;;8.85;89.40
56671;BME280;42545;50.054;8.306;2023-04-01T03:03:31;98194.34;;;8.86;89.83
56671;BME280;42545;50.054;8.306;2023-04-01T03:05:57;98197.00;;;8.86;90.05
56671;BME280;42545;50.054;8.306;2023-04-01T03:08:25;98197.91;;;8.83;90.13
56671;BME280;42545;50.054;8.306;2023-04-01T03:10:53;98188.25;;;8.82;90.15
56671;BME280;42545;50.054;8.306;2023-04-01T03:13:22;98197.00;;;8.83;90.23
56671;BME280;42545;50.054;8.306;2023-04-01T03:15:50;98196.13;;;8.84;90.08
56671;BME280;42545;50.054;8.306;2023-04-01T03:18:17;98197.00;;;8.83;90.14
56671;BME280;42545;50.054;8.306;2023-04-01T03:20:44;98199.63;;;8.83;90.36
56671;BME280;42545;50.054;8.306;2023-04-01T03:23:12;98194.38;;;8.83;90.30
56671;BME280;42545;50.054;8.306;2023-04-01T03:25:39;98197.91;;;8.77;90.34
56671;BME280;42545;50.054;8.306;2023-04-01T03:28:07;98197.00;;;8.81;90.42
56671;BME280;42545;50.054;8.306;2023-04-01T03:30:33;98197.91;;;8.83;90.37
56671;BME280;42545;50.054;8.306;2023-04-01T03:33:02;98203.16;;;8.83;90.34
56671;BME280;42545;50.054;8.306;2023-04-01T03:35:29;98186.53;;;8.80;90.10
56671;BME280;42545;50.054;8.306;2023-04-01T03:37:57;98185.63;;;8.79;90.36
56671;BME280;42545;50.054;8.306;2023-04-01T03:40:23;98200.50;;;8.85;90.29
56671;BME280;42545;50.054;8.306;2023-04-01T03:42:51;98182.97;;;8.82;90.36
56671;BME280;42545;50.054;8.306;2023-04-01T03:45:19;98205.75;;;8.85;90.45
56671;BME280;42545;50.054;8.306;2023-04-01T03:47:46;98197.84;;;8.87;90.46
56671;BME280;42545;50.054;8.306;2023-04-01T03:50:14;98196.13;;;8.87;90.73
56671;BME280;42545;50.054;8.306;2023-04-01T03:52:41;98197.84;;;8.85;90.73
56671;BME280;42545;50.054;8.306;2023-04-01T03:55:08;98203.13;;;8.85;90.70
56671;BME280;42545;50.054;8.306;2023-04-01T03:57:34;98203.13;;;8.85;91.00
56671;BME280;42545;50.054;8.306;2023-04-01T04:00:01;98195.25;;;8.83;90.86
56671;BME280;42545;50.054;8.306;2023-04-01T04:02:28;98203.13;;;8.85;90.89
56671;BME280;42545;50.054;8.306;2023-04-01T04:04:56;98196.13;;;8.85;90.96
56671;BME280;42545;50.054;8.306;2023-04-01T04:07:24;98197.00;;;8.86;90.80
56671;BME280;42545;50.054;8.306;2023-04-01T04:09:52;98197.84;;;8.85;91.06
56671;BME280;42545;50.054;8.306;2023-04-01T04:12:19;98206.66;;;8.85;90.93
56671;BME280;42545;50.054;8.306;2023-04-01T04:14:45;98193.50;;;8.85;90.82
56671;BME280;42545;50.054;8.306;2023-04-01T04:17:12;98193.50;;;8.84;90.69
56671;BME280;42545;50.054;8.306;2023-04-01T04:19:41;98204.88;;;8.86;90.65
56671;BME280;42545;50.054;8.306;2023-04-01T04:22:10;98182.97;;;8.87;90.75
56671;BME280;42545;50.054;8.306;2023-04-01T04:24:38;98199.63;;;8.86;90.67
56671;BME280;42545;50.054;8.306;2023-04-01T04:27:05;98208.38;;;8.87;90.71
56671;BME280;42545;50.054;8.306;2023-04-01T04:29:31;98208.38;;;8.88;90.49
56671;BME280;42545;50.054;8.306;2023-04-01T04:31:58;98200.47;;;8.88;90.31
56671;BME280;42545;50.054;8.306;2023-04-01T04:34:25;98196.97;;;8.88;90.63
56671;BME280;42545;50.054;8.306;2023-04-01T04:36:52;98203.97;;;8.89;90.78
56671;BME280;42545;50.054;8.306;2023-04-01T04:39:18;98202.25;;;8.88;90.72
56671;BME280;42545;50.054;8.306;2023-04-01T04:41:47;98196.97;;;8.88;91.01
56671;BME280;42545;50.054;8.306;2023-04-01T04:44:14;98198.75;;;8.84;90.97
56671;BME280;42545;50.054;8.306;2023-04-01T04:46:40;98205.75;;;8.85;91.16
56671;BME280;42545;50.054;8.306;2023-04-01T04:49:07;98203.16;;;8.82;91.53
56671;BME280;42545;50.054;8.306;2023-04-01T04:51:34;98204.03;;;8.82;91.54
56671;BME280;42545;50.054;8.306;2023-04-01T04:54:04;98197.03;;;8.80;91.58
56671;BME280;42545;50.054;8.306;2023-04-01T04:56:31;98203.16;;;8.80;91.74
56671;BME280;42545;50.054;8.306;2023-04-01T04:59:01;98212.81;;;8.78;92.04
56671;BME280;42545;50.054;8.306;2023-04-01T05:01:27;98197.97;;;8.73;91.80
56671;BME280;42545;50.054;8.306;2023-04-01T05:03:54;98205.81;;;8.77;91.65
56671;BME280;42545;50.054;8.306;2023-04-01T05:06:21;98203.19;;;8.77;91.64
56671;BME280;42545;50.054;8.306;2023-04-01T05:08:47;98202.31;;;8.77;91.95
56671;BME280;42545;50.054;8.306;2023-04-01T05:11:18;98210.22;;;8.72;91.48
56671;BME280;42545;50.054;8.306;2023-04-01T05:13:45;98208.44;;;8.74;91.66
56671;BME280;42545;50.054;8.306;2023-04-01T05:16:16;98205.81;;;8.76;91.44
56671;BME280;42545;50.054;8.306;2023-04-01T05:18:43;98208.44;;;8.76;91.55
56671;BME280;42545;50.054;8.306;2023-04-01T05:21:13;98203.19;;;8.74;91.42
56671;BME280;42545;50.054;8.306;2023-04-01T05:23:41;98207.56;;;8.77;91.76
56671;BME280;42545;50.054;8.306;2023-04-01T05:26:10;98199.69;;;8.77;91.87
56671;BME280;42545;50.054;8.306;2023-04-01T05:28:37;98201.44;;;8.75;91.66
56671;BME280;42545;50.054;8.306;2023-04-01T05:31:04;98205.81;;;8.74;91.70
56671;BME280;42545;50.054;8.306;2023-04-01T05:33:32;98197.06;;;8.75;91.40
56671;BME280;42545;50.054;8.306;2023-04-01T05:36:06;98211.06;;;8.74;91.34
56671;BME280;42545;50.054;8.306;2023-04-01T05:38:32;98200.59;;;8.73;91.27
56671;BME280;42545;50.054;8.306;2023-04-01T05:40:59;98204.09;;;8.73;91.28
56671;BME280;42545;50.054;8.306;2023-04-01T05:43:26;98212.84;;;8.74;91.50
56671;BME280;42545;50.054;8.306;2023-04-01T05:45:54;98203.22;;;8.71;91.55
56671;BME280;42545;50.054;8.306;2023-04-01T05:48:21;98202.38;;;8.71;91.87
56671;BME280;42545;50.054;8.306;2023-04-01T05:50:49;98202.38;;;8.71;92.04
56671;BME280;42545;50.054;8.306;2023-04-01T05:53:16;98198.84;;;8.69;91.93
56671;BME280;42545;50.054;8.306;2023-04-01T05:55:42;98203.22;;;8.68;92.18
56671;BME280;42545;50.054;8.306;2023-04-01T05:58:09;98198.03;;;8.63;92.47
56671;BME280;42545;50.054;8.306;2023-04-01T06:00:36;98205.88;;;8.66;92.64
56671;BME280;42545;50.054;8.306;2023-04-01T06:03:03;98184.88;;;8.60;92.70
56671;BME280;42545;50.054;8.306;2023-04-01T06:05:38;98199.75;;;8.66;92.81
56671;BME280;42545;50.054;8.306;2023-04-01T06:08:10;98200.63;;;8.65;92.98
56671;BME280;42545;50.054;8.306;2023-04-01T06:10:48;98192.75;;;8.63;92.81
56671;BME280;42545;50.054;8.306;2023-04-01T06:13:25;98198.88;;;8.64;92.52
56671;BME280;42545;50.054;8.306;2023-04-01T06:16:02;98197.97;;;8.65;92.30
56671;BME280;42545;50.054;8.306;2023-04-01T06:18:52;98198.88;;;8.67;92.21
56671;BME280;42545;50.054;8.306;2023-04-01T06:21:41;98192.72;;;8.65;92.32
56671;BME280;42545;50.054;8.306;2023-04-01T06:24:25;98204.09;;;8.69;92.44
56671;BME280;42545;50.054;8.306;2023-04-01T06:27:03;98200.63;;;8.65;92.31
56671;BME280;42545;50.054;8.306;2023-04-01T06:29:47;98204.09;;;8.69;92.66
56671;BME280;42545;50.054;8.306;2023-04-01T06:32:26;98196.25;;;8.67;92.67
56671;BME280;42545;50.054;8.306;2023-04-01T06:35:21;98212.88;;;8.64;93.16
56671;BME280;42545;50.054;8.306;2023-04-01T06:38:14;98204.13;;;8.65;93.33
56671;BME280;42545;50.054;8.306;2023-04-01T06:41:10;98212.03;;;8.64;93.94
56671;BME280;42545;50.054;8.306;2023-04-01T06:43:50;98202.38;;;8.61;94.95
56671;BME280;42545;50.054;8.306;2023-04-01T06:46:31;98205.03;;;8.60;95.35
56671;BME280;42545;50.054;8.306;2023-04-01T06:49:17;98209.44;;;8.56;95.82
56671;BME280;42545;50.054;8.306;2023-04-01T06:51:52;98205.09;;;8.48;96.36
56671;BME280;42545;50.054;8.306;2023-04-01T06:54:26;98206.81;;;8.50;97.11
56671;BME280;42545;50.054;8.306;2023-04-01T06:56:59;98207.72;;;8.49;97.82
56671;BME280;42545;50.054;8.306;2023-04-01T06:59:28;98205.09;;;8.48;98.31
56671;BME280;42545;50.054;8.306;2023-04-01T07:01:59;98209.47;;;8.49;98.79
56671;BME280;42545;50.054;8.306;2023-04-01T07:04:30;98208.59;;;8.48;99.10
56671;BME280;42545;50.054;8.306;2023-04-01T07:06:59;98204.25;;;8.42;99.86
56671;BME280;42545;50.054;8.306;2023-04-01T07:09:31;98212.97;;;8.49;100.00
56671;BME280;42545;50.054;8.306;2023-04-01T07:12:03;98201.63;;;8.44;100.00
56671;BME280;42545;50.054;8.306;2023-04-01T07:14:34;98216.47;;;8.51;100.00
56671;BME280;42545;50.054;8.306;2023-04-01T07:17:06;98210.34;;;8.49;100.00
56671;BME280;42545;50.054;8.306;2023-04-01T07:19:39;98205.97;;;8.51;100.00
56671;BME280;42545;50.054;8.306;2023-04-01T07:22:16;98207.72;;;8.51;100.00
56671;BME280;42545;50.054;8.306;2023-04-01T07:24:46;98211.22;;;8.51;100.00
56671;BME280;42545;50.054;8.306;2023-04-01T07:27:15;98205.97;;;8.50;100.00
56671;BME280;42545;50.054;8.306;2023-04-01T07:29:42;98214.72;;;8.52;100.00
56671;BME280;42545;50.054;8.306;2023-04-01T07:32:15;98214.72;;;8.52;100.00
56671;BME280;42545;50.054;8.306;2023-04-01T07:34:52;98213.84;;;8.53;100.00
56671;BME280;42545;50.054;8.306;2023-04-01T07:37:29;98217.34;;;8.56;100.00
56671;BME280;42545;50.054;8.306;2023-04-01T07:40:06;98220.81;;;8.60;100.00
56671;BME280;42545;50.054;8.306;2023-04-01T07:42:43;98209.41;;;8.64;100.00
56671;BME280;42545;50.054;8.306;2023-04-01T07:45:21;98204.16;;;8.59;100.00
56671;BME280;42545;50.054;8.306;2023-04-01T07:48:08;98215.41;;;8.81;100.00
56671;BME280;42545;50.054;8.306;2023-04-01T07:50:41;98228.50;;;8.91;100.00
56671;BME280;42545;50.054;8.306;2023-04-01T07:53:16;98211.84;;;8.95;100.00
56671;BME280;42545;50.054;8.306;2023-04-01T07:55:50;98224.94;;;8.98;100.00
56671;BME280;42545;50.054;8.306;2023-04-01T07:58:29;98231.97;;;9.03;100.00
56671;BME280;42545;50.054;8.306;2023-04-01T08:01:02;98228.41;;;9.09;100.00
56671;BME280;42545;50.054;8.306;2023-04-01T08:03:46;98233.66;;;9.09;100.00
56671;BME280;42545;50.054;8.306;2023-04-01T08:06:19;98229.28;;;9.08;100.00
56671;BME280;42545;50.054;8.306;2023-04-01T08:08:59;98236.25;;;9.12;100.00
56671;BME280;42545;50.054;8.306;2023-04-01T08:11:40;98237.13;;;9.14;100.00
56671;BME280;42545;50.054;8.306;2023-04-01T08:14:18;98232.75;;;9.13;100.00
56671;BME280;42545;50.054;8.306;2023-04-01T08:16:56;98243.28;;;9.15;100.00
56671;BME280;42545;50.054;8.306;2023-04-01T08:19:30;98253.78;;;9.16;100.00
56671;BME280;42545;50.054;8.306;2023-04-01T08:22:04;98244.16;;;9.14;100.00
56671;BME280;42545;50.054;8.306;2023-04-01T08:24:38;98245.91;;;9.13;100.00
56671;BME280;42545;50.054;8.306;2023-04-01T08:27:12;98246.75;;;9.17;100.00
56671;BME280;42545;50.054;8.306;2023-04-01T08:29:47;98252.03;;;9.18;100.00
56671;BME280;42545;50.054;8.306;2023-04-01T08:32:17;98257.25;;;9.21;100.00
56671;BME280;42545;50.054;8.306;2023-04-01T08:34:51;98253.75;;;9.22;100.00
56671;BME280;42545;50.054;8.306;2023-04-01T08:37:25;98259.88;;;9.21;100.00
56671;BME280;42545;50.054;8.306;2023-04-01T08:39:58;98251.97;;;9.23;100.00
56671;BME280;42545;50.054;8.306;2023-04-01T08:42:41;98259.00;;;9.24;100.00
56671;BME280;42545;50.054;8.306;2023-04-01T08:45:23;98254.66;;;9.20;100.00
56671;BME280;42545;50.054;8.306;2023-04-01T08:48:12;98253.81;;;9.15;100.00
56671;BME280;42545;50.054;8.306;2023-04-01T08:51:01;98251.13;;;9.18;100.00
56671;BME280;42545;50.054;8.306;2023-04-01T08:53:47;98254.59;;;9.23;100.00
56671;BME280;42545;50.054;8.306;2023-04-01T08:56:19;98254.59;;;9.26;100.00
56671;BME280;42545;50.054;8.306;2023-04-01T08:58:58;98257.19;;;9.31;100.00
56671;BME280;42545;50.054;8.306;2023-04-01T09:01:42;98258.94;;;9.32;100.00
56671;BME280;42545;50.054;8.306;2023-04-01T09:04:36;98265.03;;;9.37;100.00
56671;BME280;42545;50.054;8.306;2023-04-01T09:07:21;98265.88;;;9.42;100.00
56671;BME280;42545;50.054;8.306;2023-04-01T09:10:11;98264.09;;;9.46;100.00
56671;BME280;42545;50.054;8.306;2023-04-01T09:13:09;98272.81;;;9.52;100.00
56671;BME280;42545;50.054;8.306;2023-04-01T09:16:23;98275.44;;;9.51;100.00
56671;BME280;42545;50.054;8.306;2023-04-01T09:19:10;98268.44;;;9.51;100.00
56671;BME280;42545;50.054;8.306;2023-04-01T09:21:56;98270.16;;;9.55;100.00
56671;BME280;42545;50.054;8.306;2023-04-01T09:24:35;98271.88;;;9.56;100.00
56671;BME280;42545;50.054;8.306;2023-04-01T09:27:14;98272.78;;;9.58;100.00
56671;BME280;42545;50.054;8.306;2023-04-01T09:30:10;98279.78;;;9.56;100.00
56671;BME280;42545;50.054;8.306;2023-04-01T09:36:03;98278.06;;;9.57;100.00
56671;BME280;42545;50.054;8.306;2023-04-01T09:38:42;98273.66;;;9.57;100.00
56671;BME280;42545;50.054;8.306;2023-04-01T09:41:24;98284.16;;;9.62;100.00
56671;BME280;42545;50.054;8.306;2023-04-01T09:44:00;98284.97;;;9.67;100.00
56671;BME280;42545;50.054;8.306;2023-04-01T09:46:37;98287.59;;;9.70;100.00
56671;BME280;42545;50.054;8.306;2023-04-01T09:49:30;98286.66;;;9.73;100.00
56671;BME280;42545;50.054;8.306;2023-04-01T09:52:18;98296.28;;;9.80;100.00
56671;BME280;42545;50.054;8.306;2023-04-01T09:54:58;98294.47;;;9.85;100.00
56671;BME280;42545;50.054;8.306;2023-04-01T10:00:49;98302.28;;;9.94;100.00
56671;BME280;42545;50.054;8.306;2023-04-01T10:06:49;98311.03;;;9.99;100.00
56671;BME280;42545;50.054;8.306;2023-04-01T10:09:48;98295.28;;;9.95;100.00
56671;BME280;42545;50.054;8.306;2023-04-01T10:12:44;98303.97;;;10.03;100.00
56671;BME280;42545;50.054;8.306;2023-04-01T10:15:54;98302.19;;;10.07;100.00
56671;BME280;42545;50.054;8.306;2023-04-01T10:18:38;98297.75;;;10.09;100.00
56671;BME280;42545;50.054;8.306;2023-04-01T10:21:28;98304.78;;;10.11;100.00
56671;BME280;42545;50.054;8.306;2023-04-01T10:24:11;98312.72;;;10.07;100.00
56671;BME280;42545;50.054;8.306;2023-04-01T10:27:04;98303.13;;;10.01;100.00
56671;BME280;42545;50.054;8.306;2023-04-01T10:32:49;98304.84;;;10.04;100.00
56671;BME280;42545;50.054;8.306;2023-04-01T10:35:42;98297.81;;;10.04;100.00
56671;BME280;42545;50.054;8.306;2023-04-01T10:38:31;98302.09;;;10.13;100.00
56671;BME280;42545;50.054;8.306;2023-04-01T10:41:22;98307.31;;;10.20;100.00
56671;BME280;42545;50.054;8.306;2023-04-01T10:44:09;98302.84;;;10.26;100.00
56671;BME280;42545;50.054;8.306;2023-04-01T10:46:52;98311.66;;;10.25;100.00
56671;BME280;42545;50.054;8.306;2023-04-01T10:49:43;98308.16;;;10.24;100.00
56671;BME280;42545;50.054;8.306;2023-04-01T10:52:36;98302.00;;;10.25;100.00
56671;BME280;42545;50.054;8.306;2023-04-01T10:55:25;98301.97;;;10.31;100.00
56671;BME280;42545;50.054;8.306;2023-04-01T10:58:20;98288.69;;;10.41;100.00
56671;BME280;42545;50.054;8.306;2023-04-01T11:01:12;98296.44;;;10.53;100.00
56671;BME280;42545;50.054;8.306;2023-04-01T11:07:25;98291.81;;;10.73;100.00
56671;BME280;42545;50.054;8.306;2023-04-01T11:10:37;98291.81;;;10.73;100.00
56671;BME280;42545;50.054;8.306;2023-04-01T11:13:47;98302.25;;;10.83;100.00
56671;BME280;42545;50.054;8.306;2023-04-01T11:16:42;98290.81;;;10.82;100.00
56671;BME280;42545;50.054;8.306;2023-04-01T11:19:34;98297.81;;;10.85;100.00
56671;BME280;42545;50.054;8.306;2023-04-01T11:22:22;98290.91;;;10.74;100.00
56671;BME280;42545;50.054;8.306;2023-04-01T11:25:05;98294.47;;;10.70;100.00
56671;BME280;42545;50.054;8.306;2023-04-01T11:27:52;98300.59;;;10.75;100.00
56671;BME280;42545;50.054;8.306;2023-04-01T11:30:29;98308.50;;;10.74;100.00
56671;BME280;42545;50.054;8.306;2023-04-01T11:33:03;98306.75;;;10.73;100.00
56671;BME280;42545;50.054;8.306;2023-04-01T11:35:42;98306.75;;;10.71;100.00
56671;BME280;42545;50.054;8.306;2023-04-01T11:38:22;98315.50;;;10.75;100.00
56671;BME280;42545;50.054;8.306;2023-04-01T11:40:56;98314.63;;;10.77;100.00
56671;BME280;42545;50.054;8.306;2023-04-01T11:43:33;98318.94;;;10.83;100.00
56671;BME280;42545;50.054;8.306;2023-04-01T11:46:10;98318.03;;;10.86;100.00
56671;BME280;42545;50.054;8.306;2023-04-01T11:48:57;98321.56;;;10.86;100.00
56671;BME280;42545;50.054;8.306;2023-04-01T11:51:44;98325.09;;;10.84;100.00
56671;BME280;42545;50.054;8.306;2023-04-01T11:54:23;98325.09;;;10.82;100.00
56671;BME280;42545;50.054;8.306;2023-04-01T11:57:03;98330.44;;;10.81;100.00
56671;BME280;42545;50.054;8.306;2023-04-01T11:59:50;98326.88;;;10.82;100.00
56671;BME280;42545;50.054;8.306;2023-04-01T12:02:28;98337.47;;;10.78;100.00
56671;BME280;42545;50.054;8.306;2023-04-01T12:05:07;98345.44;;;10.75;100.00
56671;BME280;42545;50.054;8.306;2023-04-01T12:07:53;98346.34;;;10.71;100.00
56671;BME280;42545;50.054;8.306;2023-04-01T12:10:26;98350.81;;;10.68;100.00
56671;BME280;42545;50.054;8.306;2023-04-01T12:13:02;98345.59;;;10.60;100.00
56671;BME280;42545;50.054;8.306;2023-04-01T12:15:40;98358.03;;;10.47;100.00
56671;BME280;42545;50.054;8.306;2023-04-01T12:18:16;98361.63;;;10.40;100.00
56671;BME280;42545;50.054;8.306;2023-04-01T12:20:56;98358.09;;;10.41;100.00
56671;BME280;42545;50.054;8.306;2023-04-01T12:23:45;98352.81;;;10.43;100.00
56671;BME280;42545;50.054;8.306;2023-04-01T12:26:39;98364.22;;;10.46;100.00
56671;BME280;42545;50.054;8.306;2023-04-01T12:29:38;98365.06;;;10.51;100.00
56671;BME280;42545;50.054;8.306;2023-04-01T12:32:18;98357.94;;;10.55;100.00
56671;BME280;42545;50.054;8.306;2023-04-01T12:34:54;98360.56;;;10.58;100.00
56671;BME280;42545;50.054;8.306;2023-04-01T12:37:35;98356.09;;;10.65;100.00
56671;BME280;42545;50.054;8.306;2023-04-01T12:40:17;98351.59;;;10.71;100.00
56671;BME280;42545;50.054;8.306;2023-04-01T12:42:59;98363.81;;;10.82;100.00
56671;BME280;42545;50.054;8.306;2023-04-01T12:45:30;98369.06;;;10.85;100.00
56671;BME280;42545;50.054;8.306;2023-04-01T12:48:08;98363.78;;;10.86;100.00
56671;BME280;42545;50.054;8.306;2023-04-01T12:50:54;98355.78;;;10.89;100.00
56671;BME280;42545;50.054;8.306;2023-04-01T12:53:38;98357.56;;;10.89;100.00
56671;BME280;42545;50.054;8.306;2023-04-01T12:56:14;98367.25;;;10.90;100.00
56671;BME280;42545;50.054;8.306;2023-04-01T12:58:59;98364.66;;;10.85;100.00
56671;BME280;42545;50.054;8.306;2023-04-01T13:01:50;98365.56;;;10.84;100.00
56671;BME280;42545;50.054;8.306;2023-04-01T13:04:47;98370.75;;;10.89;100.00
56671;BME280;42545;50.054;8.306;2023-04-01T13:07:23;98379.50;;;10.94;100.00
56671;BME280;42545;50.054;8.306;2023-04-01T13:10:00;98374.16;;;10.99;100.00
56671;BME280;42545;50.054;8.306;2023-04-01T13:12:36;98368.81;;;11.06;100.00
56671;BME280;42545;50.054;8.306;2023-04-01T13:15:23;98374.03;;;11.09;100.00
56671;BME280;42545;50.054;8.306;2023-04-01T13:17:54;98385.50;;;11.07;100.00
56671;BME280;42545;50.054;8.306;2023-04-01T13:20:33;98387.34;;;11.00;100.00
56671;BME280;42545;50.054;8.306;2023-04-01T13:23:11;98374.22;;;10.95;100.00
56671;BME280;42545;50.054;8.306;2023-04-01T13:25:48;98382.25;;;10.85;100.00
56671;BME280;42545;50.054;8.306;2023-04-01T13:28:20;98385.81;;;10.81;100.00
56671;BME280;42545;50.054;8.306;2023-04-01T13:30:56;98385.94;;;10.70;100.00
56671;BME280;42545;50.054;8.306;2023-04-01T13:33:27;98386.94;;;10.58;100.00
56671;BME280;42545;50.054;8.306;2023-04-01T13:36:18;98396.63;;;10.54;100.00
56671;BME280;42545;50.054;8.306;2023-04-01T13:39:02;98397.63;;;10.44;100.00
56671;BME280;42545;50.054;8.306;2023-04-01T13:41:47;98397.69;;;10.36;100.00
56671;BME280;42545;50.054;8.306;2023-04-01T13:44:21;98399.50;;;10.30;100.00
56671;BME280;42545;50.054;8.306;2023-04-01T13:47:09;98388.19;;;10.17;100.00
56671;BME280;42545;50.054;8.306;2023-04-01T13:49:57;98404.88;;;10.16;100.00
56671;BME280;42545;50.054;8.306;2023-04-01T13:52:49;98397.03;;;10.07;100.00
56671;BME280;42545;50.054;8.306;2023-04-01T13:55:34;98398.91;;;9.97;100.00
56671;BME280;42545;50.054;8.306;2023-04-01T13:58:15;98381.41;;;9.84;100.00
56671;BME280;42545;50.054;8.306;2023-04-01T14:00:57;98399.97;;;9.71;100.00
56671;BME280;42545;50.054;8.306;2023-04-01T14:03:37;98404.44;;;9.58;100.00